createdAt,value
2023-05-22T00:02:23.236Z,14.70
2023-05-22T00:07:30.047Z,14.62
2023-05-22T00:12:33.793Z,14.54
2023-05-22T00:17:38.063Z,14.47
2023-05-22T00:22:42.579Z,14.44
2023-05-22T00:27:47.895Z,14.38
2023-05-22T00:32:51.848Z,14.34
2023-05-22T00:37:55.810Z,14.28
2023-05-22T00:42:59.517Z,14.26
2023-05-22T00:48:04.428Z,14.21
2023-05-22T00:53:08.647Z,14.12
2023-05-22T00:58:16.444Z,14.05
2023-05-22T01:03:27.184Z,13.96
2023-05-22T01:08:31.329Z,13.88
2023-05-22T01:13:52.234Z,13.79
2023-05-22T01:19:31.560Z,13.72
2023-05-22T01:24:44.433Z,13.63
2023-05-22T01:30:11.584Z,13.56
2023-05-22T01:35:19.212Z,13.47
2023-05-22T01:40:23.551Z,13.40
2023-05-22T01:45:27.379Z,13.33
2023-05-22T01:50:31.214Z,13.28
2023-05-22T01:56:02.014Z,13.27
2023-05-22T02:01:09.229Z,13.25
2023-05-22T02:06:14.516Z,13.20
2023-05-22T02:11:20.238Z,13.15
2023-05-22T02:16:26.345Z,13.10
2023-05-22T02:21:29.989Z,13.05
2023-05-22T02:26:35.969Z,12.96
2023-05-22T02:31:39.868Z,12.90
2023-05-22T02:36:44.286Z,12.84
2023-05-22T02:41:48.588Z,12.80
2023-05-22T02:46:52.538Z,12.75
2023-05-22T02:51:56.288Z,12.73
2023-05-22T02:57:00.336Z,12.73
2023-05-22T03:02:06.109Z,12.73
2023-05-22T03:07:11.054Z,12.74
2023-05-22T03:12:15.154Z,12.73
2023-05-22T03:17:18.821Z,12.72
2023-05-22T03:22:23.562Z,12.73
2023-05-22T03:27:27.816Z,12.82
2023-05-22T03:32:31.885Z,12.86
2023-05-22T03:37:36.681Z,12.89
2023-05-22T03:42:40.617Z,13.27
2023-05-22T03:47:44.360Z,14.03
2023-05-22T03:52:49.831Z,14.21
2023-05-22T03:57:53.464Z,14.64
2023-05-22T04:02:59.156Z,14.89
2023-05-22T04:08:03.567Z,15.50
2023-05-22T04:13:07.319Z,16.50
2023-05-22T04:18:12.597Z,17.36
2023-05-22T04:23:16.400Z,18.35
2023-05-22T04:28:23.467Z,19.21
2023-05-22T04:33:33.355Z,19.72
2023-05-22T04:38:37.646Z,20.16
2023-05-22T04:43:41.327Z,20.67
2023-05-22T04:48:45.157Z,21.03
2023-05-22T04:53:50.154Z,21.45
2023-05-22T04:58:54.269Z,21.74
2023-05-22T05:03:58.162Z,21.75
2023-05-22T05:09:02.516Z,20.58
2023-05-22T05:14:06.344Z,19.41
2023-05-22T05:19:10.146Z,19.01
2023-05-22T05:24:13.816Z,18.74
2023-05-22T05:29:20.705Z,18.57
2023-05-22T05:34:45.951Z,18.53
2023-05-22T05:39:59.392Z,18.26
2023-05-22T05:45:06.573Z,18.18
2023-05-22T05:50:11.407Z,17.98
2023-05-22T05:55:16.178Z,17.97
2023-05-22T06:00:20.252Z,18.12
2023-05-22T06:05:30.354Z,18.24
2023-05-22T06:10:44.197Z,18.41
2023-05-22T06:15:54.892Z,18.59
2023-05-22T06:20:59.391Z,18.58
2023-05-22T06:26:03.671Z,18.59
2023-05-22T06:31:10.194Z,18.56
2023-05-22T06:36:16.609Z,18.37
2023-05-22T06:41:24.746Z,18.50
2023-05-22T06:46:33.107Z,18.47
2023-05-22T06:51:40.709Z,18.69
2023-05-22T06:56:49.237Z,18.92
2023-05-22T07:01:55.498Z,19.15
2023-05-22T07:07:09.564Z,19.40
2023-05-22T07:12:14.049Z,19.60
2023-05-22T07:17:19.084Z,19.74
2023-05-22T07:22:25.399Z,19.91
2023-05-22T07:27:29.358Z,20.19
2023-05-22T07:32:33.843Z,20.24
2023-05-22T07:37:39.083Z,20.25
2023-05-22T07:42:42.959Z,20.48
2023-05-22T07:47:48.218Z,20.71
2023-05-22T07:52:52.112Z,20.84
2023-05-22T07:57:56.541Z,21.08
2023-05-22T08:03:05.655Z,21.26
2023-05-22T08:08:10.695Z,21.35
2023-05-22T08:13:17.159Z,21.40
2023-05-22T08:18:22.800Z,21.43
2023-05-22T08:23:29.562Z,21.71
2023-05-22T08:28:33.342Z,21.88
2023-05-22T08:33:38.660Z,21.94
2023-05-22T08:38:42.432Z,22.20
2023-05-22T08:43:47.035Z,22.45
2023-05-22T08:48:52.403Z,22.62
2023-05-22T08:53:59.695Z,22.75
2023-05-22T08:59:04.604Z,22.80
2023-05-22T09:04:08.518Z,22.72
2023-05-22T09:09:12.840Z,22.58
2023-05-22T09:14:17.224Z,22.76
2023-05-22T09:19:24.415Z,22.88
2023-05-22T09:24:29.086Z,23.14
2023-05-22T09:29:54.510Z,23.29
2023-05-22T09:35:05.324Z,23.47
2023-05-22T09:40:14.589Z,23.57
2023-05-22T09:45:20.664Z,23.50
2023-05-22T09:50:25.288Z,23.62
2023-05-22T09:55:32.732Z,23.79
2023-05-22T10:00:37.119Z,23.89
2023-05-22T10:05:44.045Z,23.89
2023-05-22T10:10:52.369Z,23.97
2023-05-22T10:15:56.975Z,23.90
2023-05-22T10:21:01.368Z,23.71
2023-05-22T10:26:09.356Z,23.42
2023-05-22T10:31:58.314Z,23.28
2023-05-22T10:37:38.938Z,23.29
2023-05-22T10:42:56.616Z,23.13
2023-05-22T10:48:08.967Z,23.06
2023-05-22T10:53:41.462Z,22.99
2023-05-22T10:58:59.543Z,23.06
2023-05-22T11:04:26.072Z,23.26
2023-05-22T11:09:33.906Z,23.48
2023-05-22T11:14:37.848Z,23.55
2023-05-22T11:19:42.415Z,23.38
2023-05-22T11:24:49.360Z,23.52
2023-05-22T11:29:53.261Z,23.70
2023-05-22T11:34:58.113Z,23.80
2023-05-22T11:40:06.216Z,23.92
2023-05-22T11:45:11.974Z,23.95
2023-05-22T11:50:22.751Z,23.95
2023-05-22T11:55:34.084Z,24.03
2023-05-22T12:00:38.699Z,24.15
2023-05-22T12:05:46.607Z,24.21
2023-05-22T12:10:51.116Z,24.26
2023-05-22T12:15:57.813Z,24.34
2023-05-22T12:21:10.752Z,24.40
2023-05-22T12:26:19.950Z,24.58
2023-05-22T12:31:23.667Z,24.67
2023-05-22T12:36:39.647Z,24.72
2023-05-22T12:41:44.195Z,24.55
2023-05-22T12:46:48.227Z,24.28
2023-05-22T12:51:53.054Z,24.21
2023-05-22T12:56:56.901Z,24.20
2023-05-22T13:02:04.467Z,24.36
2023-05-22T13:07:08.186Z,24.67
2023-05-22T13:12:11.906Z,24.86
2023-05-22T13:17:15.712Z,24.76
2023-05-22T13:22:20.654Z,24.76
2023-05-22T13:27:24.948Z,24.93
2023-05-22T13:32:28.798Z,24.96
2023-05-22T13:37:32.714Z,25.02
2023-05-22T13:42:37.961Z,24.93
2023-05-22T13:47:41.694Z,24.93
2023-05-22T13:52:45.363Z,25.08
2023-05-22T13:57:50.238Z,25.09
2023-05-22T14:02:55.288Z,25.08
2023-05-22T14:08:00.835Z,25.06
2023-05-22T14:13:04.876Z,25.22
2023-05-22T14:18:08.739Z,25.12
2023-05-22T14:23:13.521Z,25.23
2023-05-22T14:28:19.413Z,25.35
2023-05-22T14:33:23.344Z,25.36
2023-05-22T14:38:27.038Z,25.42
2023-05-22T14:43:32.317Z,25.37
2023-05-22T14:48:36.496Z,25.43
2023-05-22T14:53:42.029Z,25.48
2023-05-22T14:58:46.252Z,25.61
2023-05-22T15:03:50.272Z,25.54
2023-05-22T15:08:55.777Z,25.61
2023-05-22T15:14:00.084Z,25.71
2023-05-22T15:19:04.935Z,25.57
2023-05-22T15:24:09.348Z,25.36
2023-05-22T15:29:13.037Z,25.35
2023-05-22T15:34:17.506Z,25.37
2023-05-22T15:39:21.317Z,25.33
2023-05-22T15:44:24.888Z,25.30
2023-05-22T15:49:31.400Z,25.26
2023-05-22T15:54:36.584Z,25.21
2023-05-22T15:59:40.402Z,25.09
2023-05-22T16:04:50.933Z,25.07
2023-05-22T16:09:57.846Z,25.11
2023-05-22T16:15:02.796Z,25.01
2023-05-22T16:20:09.700Z,24.87
2023-05-22T16:25:15.237Z,24.80
2023-05-22T16:30:21.983Z,24.72
2023-05-22T16:35:28.317Z,24.48
2023-05-22T16:40:38.608Z,24.15
2023-05-22T16:45:46.910Z,23.84
2023-05-22T16:50:50.393Z,23.64
2023-05-22T16:55:54.405Z,23.42
2023-05-22T17:00:58.427Z,23.23
2023-05-22T17:06:03.421Z,23.16
2023-05-22T17:11:07.133Z,23.13
2023-05-22T17:16:10.849Z,22.99
2023-05-22T17:21:14.713Z,22.80
2023-05-22T17:26:18.541Z,22.60
2023-05-22T17:31:23.207Z,22.39
2023-05-22T17:36:27.176Z,22.16
2023-05-22T17:41:31.414Z,21.95
2023-05-22T17:46:35.529Z,21.71
2023-05-22T17:51:39.894Z,21.47
2023-05-22T17:56:45.176Z,21.29
2023-05-22T18:01:49.047Z,21.08
2023-05-22T18:06:53.967Z,20.90
2023-05-22T18:11:59.625Z,20.77
2023-05-22T18:17:04.843Z,20.61
2023-05-22T18:22:08.603Z,20.39
2023-05-22T18:27:12.295Z,20.19
2023-05-22T18:32:15.962Z,20.00
2023-05-22T18:37:19.977Z,19.81
2023-05-22T18:42:24.069Z,19.57
2023-05-22T18:47:28.357Z,19.31
2023-05-22T18:52:34.082Z,19.07
2023-05-22T18:57:38.504Z,18.85
2023-05-22T19:02:43.255Z,18.67
2023-05-22T19:07:49.808Z,18.49
2023-05-22T19:12:55.956Z,18.29
2023-05-22T19:18:02.293Z,18.10
2023-05-22T19:23:07.204Z,17.94
2023-05-22T19:28:11.720Z,17.81
2023-05-22T19:33:18.147Z,17.70
2023-05-22T19:38:22.016Z,17.54
2023-05-22T19:43:26.165Z,17.38
2023-05-22T19:48:32.344Z,17.21
2023-05-22T19:53:36.810Z,17.10
2023-05-22T19:58:40.498Z,17.02
2023-05-22T20:03:46.794Z,16.95
2023-05-22T20:08:52.450Z,16.91
2023-05-22T20:13:56.661Z,16.84
2023-05-22T20:19:00.421Z,16.74
2023-05-22T20:24:06.519Z,16.63
2023-05-22T20:29:10.360Z,16.51
2023-05-22T20:34:14.249Z,16.39
2023-05-22T20:39:20.664Z,16.25
2023-05-22T20:44:24.862Z,16.12
2023-05-22T20:49:31.171Z,15.98
2023-05-22T20:54:36.794Z,15.86
2023-05-22T20:59:41.236Z,15.77
2023-05-22T21:04:44.856Z,15.67
2023-05-22T21:09:48.584Z,15.58
2023-05-22T21:14:52.240Z,15.47
2023-05-22T21:19:56.198Z,15.39
2023-05-22T21:24:59.960Z,15.29
2023-05-22T21:30:04.030Z,15.17
2023-05-22T21:35:09.236Z,15.04
2023-05-22T21:40:26.942Z,14.94
2023-05-22T21:45:31.586Z,14.82
2023-05-22T21:50:35.375Z,14.72
2023-05-22T21:55:39.086Z,14.66
2023-05-22T22:00:43.154Z,14.54
2023-05-22T22:05:47.559Z,14.43
2023-05-22T22:10:51.323Z,14.33
2023-05-22T22:15:55.298Z,14.22
2023-05-22T22:21:02.615Z,14.09
2023-05-22T22:26:06.559Z,14.01
2023-05-22T22:31:10.287Z,13.92
2023-05-22T22:36:13.913Z,13.83
2023-05-22T22:41:17.524Z,13.74
2023-05-22T22:46:23.123Z,13.67
2023-05-22T22:51:32.194Z,13.61
2023-05-22T22:56:36.273Z,13.52
2023-05-22T23:01:40.224Z,13.44
2023-05-22T23:06:46.458Z,13.34
2023-05-22T23:11:50.171Z,13.27
2023-05-22T23:16:54.164Z,13.19
2023-05-22T23:21:57.795Z,13.12
2023-05-22T23:27:01.738Z,13.01
2023-05-22T23:32:05.498Z,12.91
2023-05-22T23:37:09.534Z,12.80
2023-05-22T23:42:13.266Z,12.72
2023-05-22T23:47:18.393Z,12.64
2023-05-22T23:52:22.602Z,12.57
2023-05-22T23:57:26.469Z,12.49
